sensor_id;sensor_type;location;lat;lon;timestamp;pressure;altitude;pressure_sealevel;temperature;humidity
10079;BME280;5078;42.544;22.966;2023-02-13T00:00:51;95578.69;;;-1.66;100.00
10079;BME280;5078;42.544;22.966;2023-02-13T00:03:18;95573.00;;;-1.54;100.00
10079;BME280;5078;42.544;22.966;2023-02-13T00:05:45;95573.22;;;-1.38;100.00
10079;BME280;5078;42.544;22.966;2023-02-13T00:08:11;95568.16;;;-1.41;100.00
10079;BME280;5078;42.544;22.966;2023-02-13T00:10:39;95576.69;;;-1.38;100.00
10079;BME280;5078;42.544;22.966;2023-02-13T00:13:06;95556.31;;;-1.48;100.00
10079;BME280;5078;42.544;22.966;2023-02-13T00:15:33;95573.97;;;-1.57;100.00
10079;BME280;5078;42.544;22.966;2023-02-13T00:18:00;95587.22;;;-1.63;100.00
10079;BME280;5078;42.544;22.966;2023-02-13T00:20:27;95580.25;;;-1.40;100.00
10079;BME280;5078;42.544;22.966;2023-02-13T00:22:53;95577.72;;;-1.20;100.00
10079;BME280;5078;42.544;22.966;2023-02-13T00:25:20;95573.09;;;-1.13;100.00
10079;BME280;5078;42.544;22.966;2023-02-13T00:27:49;95576.94;;;-1.01;100.00
10079;BME280;5078;42.544;22.966;2023-02-13T00:30:16;95580.00;;;-0.92;100.00
10079;BME280;5078;42.544;22.966;2023-02-13T00:32:43;95586.38;;;-0.99;100.00
10079;BME280;5078;42.544;22.966;2023-02-13T00:35:10;95582.03;;;-0.98;100.00
10079;BME280;5078;42.544;22.966;2023-02-13T00:37:36;95583.78;;;-0.78;100.00
10079;BME280;5078;42.544;22.966;2023-02-13T00:40:04;95584.09;;;-0.66;100.00
10079;BME280;5078;42.544;22.966;2023-02-13T00:42:31;95588.84;;;-0.75;100.00
10079;BME280;5078;42.544;22.966;2023-02-13T00:44:59;95594.03;;;-1.38;100.00
10079;BME280;5078;42.544;22.966;2023-02-13T00:47:25;95593.38;;;-1.65;100.00
10079;BME280;5078;42.544;22.966;2023-02-13T00:49:52;95582.91;;;-1.64;100.00
10079;BME280;5078;42.544;22.966;2023-02-13T00:52:19;95587.66;;;-1.52;100.00
10079;BME280;5078;42.544;22.966;2023-02-13T00:54:46;95587.56;;;-1.50;100.00
10079;BME280;5078;42.544;22.966;2023-02-13T00:57:13;95599.50;;;-1.66;100.00
10079;BME280;5078;42.544;22.966;2023-02-13T00:59:39;95602.25;;;-1.71;100.00
10079;BME280;5078;42.544;22.966;2023-02-13T01:02:07;95599.66;;;-1.71;100.00
10079;BME280;5078;42.544;22.966;2023-02-13T01:04:34;95610.13;;;-1.73;100.00
10079;BME280;5078;42.544;22.966;2023-02-13T01:07:01;95601.47;;;-1.73;100.00
10079;BME280;5078;42.544;22.966;2023-02-13T01:09:28;95599.53;;;-1.68;100.00
10079;BME280;5078;42.544;22.966;2023-02-13T01:11:54;95602.22;;;-1.93;100.00
10079;BME280;5078;42.544;22.966;2023-02-13T01:14:21;95617.63;;;-1.87;100.00
10079;BME280;5078;42.544;22.966;2023-02-13T01:16:48;95619.47;;;-1.67;100.00
10079;BME280;5078;42.544;22.966;2023-02-13T01:19:16;95615.50;;;-1.55;100.00
10079;BME280;5078;42.544;22.966;2023-02-13T01:21:43;95616.09;;;-1.70;100.00
10079;BME280;5078;42.544;22.966;2023-02-13T01:24:09;95606.00;;;-1.78;100.00
10079;BME280;5078;42.544;22.966;2023-02-13T01:26:36;95611.31;;;-1.81;100.00
10079;BME280;5078;42.544;22.966;2023-02-13T01:29:03;95608.19;;;-1.89;100.00
10079;BME280;5078;42.544;22.966;2023-02-13T01:31:30;95614.94;;;-1.85;100.00
10079;BME280;5078;42.544;22.966;2023-02-13T01:33:57;95612.13;;;-1.79;100.00
10079;BME280;5078;42.544;22.966;2023-02-13T01:36:26;95596.41;;;-1.76;100.00
10079;BME280;5078;42.544;22.966;2023-02-13T01:38:53;95599.28;;;-2.07;100.00
10079;BME280;5078;42.544;22.966;2023-02-13T01:41:21;95598.81;;;-2.17;100.00
10079;BME280;5078;42.544;22.966;2023-02-13T01:43:50;95612.91;;;-2.01;100.00
10079;BME280;5078;42.544;22.966;2023-02-13T01:46:22;95619.59;;;-1.93;100.00
10079;BME280;5078;42.544;22.966;2023-02-13T01:48:52;95621.78;;;-2.06;100.00
10079;BME280;5078;42.544;22.966;2023-02-13T01:51:24;95615.28;;;-2.18;100.00
10079;BME280;5078;42.544;22.966;2023-02-13T01:53:57;95611.94;;;-1.98;100.00
10079;BME280;5078;42.544;22.966;2023-02-13T01:56:27;95616.44;;;-2.02;100.00
10079;BME280;5078;42.544;22.966;2023-02-13T01:58:59;95613.38;;;-1.89;100.00
10079;BME280;5078;42.544;22.966;2023-02-13T02:01:27;95609.84;;;-1.88;100.00
10079;BME280;5078;42.544;22.966;2023-02-13T02:03:57;95608.72;;;-1.81;100.00
10079;BME280;5078;42.544;22.966;2023-02-13T02:06:27;95620.38;;;-1.91;100.00
10079;BME280;5078;42.544;22.966;2023-02-13T02:09:03;95623.78;;;-1.89;100.00
10079;BME280;5078;42.544;22.966;2023-02-13T02:11:35;95600.03;;;-2.04;100.00
10079;BME280;5078;42.544;22.966;2023-02-13T02:14:05;95618.56;;;-1.89;100.00
10079;BME280;5078;42.544;22.966;2023-02-13T02:16:32;95600.16;;;-2.07;100.00
10079;BME280;5078;42.544;22.966;2023-02-13T02:19:00;95627.94;;;-1.85;100.00
10079;BME280;5078;42.544;22.966;2023-02-13T02:21:49;95617.88;;;-1.71;100.00
10079;BME280;5078;42.544;22.966;2023-02-13T02:24:58;95630.56;;;-1.63;100.00
10079;BME280;5078;42.544;22.966;2023-02-13T02:30:53;95630.81;;;-1.69;100.00
10079;BME280;5078;42.544;22.966;2023-02-13T02:33:33;95630.81;;;-1.69;100.00
10079;BME280;5078;42.544;22.966;2023-02-13T02:36:16;95626.59;;;-1.72;100.00
10079;BME280;5078;42.544;22.966;2023-02-13T02:39:05;95601.56;;;-1.75;100.00
10079;BME280;5078;42.544;22.966;2023-02-13T02:41:49;95617.75;;;-1.68;100.00
10079;BME280;5078;42.544;22.966;2023-02-13T02:44:27;95619.94;;;-1.57;100.00
10079;BME280;5078;42.544;22.966;2023-02-13T02:47:06;95622.59;;;-1.59;100.00
10079;BME280;5078;42.544;22.966;2023-02-13T02:50:02;95638.16;;;-1.35;100.00
10079;BME280;5078;42.544;22.966;2023-02-13T02:52:41;95627.88;;;-1.38;100.00
10079;BME280;5078;42.544;22.966;2023-02-13T02:55:21;95632.84;;;-1.32;100.00
10079;BME280;5078;42.544;22.966;2023-02-13T02:58:01;95619.84;;;-1.32;100.00
10079;BME280;5078;42.544;22.966;2023-02-13T03:00:50;95634.97;;;-1.20;100.00
10079;BME280;5078;42.544;22.966;2023-02-13T03:03:36;95639.06;;;-1.14;100.00
10079;BME280;5078;42.544;22.966;2023-02-13T03:06:24;95644.50;;;-1.20;100.00
10079;BME280;5078;42.544;22.966;2023-02-13T03:08:54;95620.91;;;-1.16;100.00
10079;BME280;5078;42.544;22.966;2023-02-13T03:11:52;95645.38;;;-1.20;100.00
10079;BME280;5078;42.544;22.966;2023-02-13T03:14:37;95640.75;;;-1.35;100.00
10079;BME280;5078;42.544;22.966;2023-02-13T03:17:05;95650.97;;;-1.09;100.00
10079;BME280;5078;42.544;22.966;2023-02-13T03:19:57;95648.75;;;-1.40;100.00
10079;BME280;5078;42.544;22.966;2023-02-13T03:22:57;95650.78;;;-1.48;100.00
10079;BME280;5078;42.544;22.966;2023-02-13T03:25:28;95662.16;;;-1.50;100.00
10079;BME280;5078;42.544;22.966;2023-02-13T03:28:02;95646.19;;;-1.63;100.00
10079;BME280;5078;42.544;22.966;2023-02-13T03:30:57;95666.69;;;-2.03;100.00
10079;BME280;5078;42.544;22.966;2023-02-13T03:33:41;95670.25;;;-2.05;100.00
10079;BME280;5078;42.544;22.966;2023-02-13T03:36:16;95662.00;;;-1.93;100.00
10079;BME280;5078;42.544;22.966;2023-02-13T03:39:07;95648.56;;;-2.04;100.00
10079;BME280;5078;42.544;22.966;2023-02-13T03:41:37;95660.50;;;-1.99;100.00
10079;BME280;5078;42.544;22.966;2023-02-13T03:44:11;95671.59;;;-1.95;100.00
10079;BME280;5078;42.544;22.966;2023-02-13T03:46:43;95665.44;;;-1.92;100.00
10079;BME280;5078;42.544;22.966;2023-02-13T03:49:17;95670.47;;;-2.11;100.00
10079;BME280;5078;42.544;22.966;2023-02-13T03:52:06;95683.47;;;-1.88;100.00
10079;BME280;5078;42.544;22.966;2023-02-13T03:54:40;95685.28;;;-1.90;100.00
10079;BME280;5078;42.544;22.966;2023-02-13T03:57:28;95674.25;;;-2.20;100.00
10079;BME280;5078;42.544;22.966;2023-02-13T04:00:16;95679.09;;;-2.09;100.00
10079;BME280;5078;42.544;22.966;2023-02-13T04:02:50;95676.13;;;-2.49;100.00
10079;BME280;5078;42.544;22.966;2023-02-13T04:05:23;95676.31;;;-2.30;100.00
10079;BME280;5078;42.544;22.966;2023-02-13T04:07:51;95688.03;;;-2.43;100.00
10079;BME280;5078;42.544;22.966;2023-02-13T04:10:20;95682.84;;;-2.18;100.00
10079;BME280;5078;42.544;22.966;2023-02-13T04:12:55;95683.50;;;-2.36;100.00
10079;BME280;5078;42.544;22.966;2023-02-13T04:15:28;95681.94;;;-2.17;100.00
10079;BME280;5078;42.544;22.966;2023-02-13T04:18:09;95681.09;;;-2.18;100.00
10079;BME280;5078;42.544;22.966;2023-02-13T04:20:37;95685.69;;;-2.51;100.00
10079;BME280;5078;42.544;22.966;2023-02-13T04:23:05;95679.72;;;-2.28;100.00
10079;BME280;5078;42.544;22.966;2023-02-13T04:25:37;95684.03;;;-2.03;100.00
10079;BME280;5078;42.544;22.966;2023-02-13T04:28:04;95683.47;;;-1.88;100.00
10079;BME280;5078;42.544;22.966;2023-02-13T04:30:31;95681.69;;;-1.86;100.00
10079;BME280;5078;42.544;22.966;2023-02-13T04:32:58;95668.63;;;-1.84;100.00
10079;BME280;5078;42.544;22.966;2023-02-13T04:35:25;95684.06;;;-1.80;100.00
10079;BME280;5078;42.544;22.966;2023-02-13T04:37:51;95681.13;;;-1.70;100.00
10079;BME280;5078;42.544;22.966;2023-02-13T04:40:18;95683.22;;;-1.57;100.00
10079;BME280;5078;42.544;22.966;2023-02-13T04:42:47;95676.00;;;-1.72;100.00
10079;BME280;5078;42.544;22.966;2023-02-13T04:45:14;95681.47;;;-1.80;100.00
10079;BME280;5078;42.544;22.966;2023-02-13T04:47:41;95682.53;;;-1.85;100.00
10079;BME280;5078;42.544;22.966;2023-02-13T04:50:09;95679.59;;;-2.00;100.00
10079;BME280;5078;42.544;22.966;2023-02-13T04:52:35;95683.44;;;-1.86;100.00
10079;BME280;5078;42.544;22.966;2023-02-13T04:55:02;95679.56;;;-1.75;100.00
10079;BME280;5078;42.544;22.966;2023-02-13T04:57:29;95677.31;;;-1.85;100.00
10079;BME280;5078;42.544;22.966;2023-02-13T04:59:57;95687.84;;;-1.88;100.00
10079;BME280;5078;42.544;22.966;2023-02-13T05:02:24;95678.13;;;-1.83;100.00
10079;BME280;5078;42.544;22.966;2023-02-13T05:04:51;95683.84;;;-1.97;100.00
10079;BME280;5078;42.544;22.966;2023-02-13T05:07:17;95679.38;;;-1.93;100.00
10079;BME280;5078;42.544;22.966;2023-02-13T05:09:44;95686.03;;;-1.86;100.00
10079;BME280;5078;42.544;22.966;2023-02-13T05:12:11;95685.69;;;-2.01;100.00
10079;BME280;5078;42.544;22.966;2023-02-13T05:14:37;95686.81;;;-2.08;100.00
10079;BME280;5078;42.544;22.966;2023-02-13T05:17:06;95696.31;;;-2.07;100.00
10079;BME280;5078;42.544;22.966;2023-02-13T05:19:32;95701.41;;;-2.04;100.00
10079;BME280;5078;42.544;22.966;2023-02-13T05:21:59;95702.09;;;-2.24;100.00
10079;BME280;5078;42.544;22.966;2023-02-13T05:24:43;95709.38;;;-2.60;100.00
10079;BME280;5078;42.544;22.966;2023-02-13T05:27:10;95704.84;;;-2.28;100.00
10079;BME280;5078;42.544;22.966;2023-02-13T05:29:36;95707.91;;;-2.42;100.00
10079;BME280;5078;42.544;22.966;2023-02-13T05:32:03;95703.44;;;-2.12;100.00
10079;BME280;5078;42.544;22.966;2023-02-13T05:34:31;95674.22;;;-2.44;100.00
10079;BME280;5078;42.544;22.966;2023-02-13T05:36:58;95688.44;;;-2.05;100.00
10079;BME280;5078;42.544;22.966;2023-02-13T05:39:25;95703.97;;;-1.79;100.00
10079;BME280;5078;42.544;22.966;2023-02-13T05:41:52;95715.66;;;-1.67;100.00
10079;BME280;5078;42.544;22.966;2023-02-13T05:44:18;95716.06;;;-2.28;100.00
10079;BME280;5078;42.544;22.966;2023-02-13T05:46:45;95717.19;;;-2.35;100.00
10079;BME280;5078;42.544;22.966;2023-02-13T05:49:13;95692.47;;;-1.97;100.00
10079;BME280;5078;42.544;22.966;2023-02-13T05:51:42;95695.16;;;-1.75;100.00
10079;BME280;5078;42.544;22.966;2023-02-13T05:54:10;95713.50;;;-1.79;100.00
10079;BME280;5078;42.544;22.966;2023-02-13T05:56:37;95718.38;;;-1.46;100.00
10079;BME280;5078;42.544;22.966;2023-02-13T05:59:04;95715.66;;;-1.43;100.00
10079;BME280;5078;42.544;22.966;2023-02-13T06:01:31;95706.88;;;-1.17;100.00
10079;BME280;5078;42.544;22.966;2023-02-13T06:03:57;95718.00;;;-1.14;100.00
10079;BME280;5078;42.544;22.966;2023-02-13T06:06:24;95714.72;;;-1.19;100.00
10079;BME280;5078;42.544;22.966;2023-02-13T06:08:53;95714.13;;;-1.03;100.00
10079;BME280;5078;42.544;22.966;2023-02-13T06:11:19;95723.19;;;-1.14;100.00
10079;BME280;5078;42.544;22.966;2023-02-13T06:13:46;95733.88;;;-1.20;100.00
10079;BME280;5078;42.544;22.966;2023-02-13T06:16:13;95741.91;;;-1.49;100.00
10079;BME280;5078;42.544;22.966;2023-02-13T06:18:40;95729.41;;;-1.40;100.00
10079;BME280;5078;42.544;22.966;2023-02-13T06:21:07;95734.03;;;-1.48;100.00
10079;BME280;5078;42.544;22.966;2023-02-13T06:23:34;95733.31;;;-1.52;100.00
10079;BME280;5078;42.544;22.966;2023-02-13T06:26:03;95744.19;;;-1.65;100.00
10079;BME280;5078;42.544;22.966;2023-02-13T06:28:30;95738.84;;;-1.84;100.00
10079;BME280;5078;42.544;22.966;2023-02-13T06:30:57;95725.91;;;-1.87;100.00
10079;BME280;5078;42.544;22.966;2023-02-13T06:33:24;95724.34;;;-1.91;100.00
10079;BME280;5078;42.544;22.966;2023-02-13T06:35:51;95738.78;;;-2.08;100.00
10079;BME280;5078;42.544;22.966;2023-02-13T06:38:17;95746.22;;;-1.97;100.00
10079;BME280;5078;42.544;22.966;2023-02-13T06:40:46;95741.53;;;-2.12;100.00
10079;BME280;5078;42.544;22.966;2023-02-13T06:43:14;95749.84;;;-2.03;100.00
10079;BME280;5078;42.544;22.966;2023-02-13T06:45:42;95745.34;;;-1.98;100.00
10079;BME280;5078;42.544;22.966;2023-02-13T06:48:11;95743.28;;;-2.13;100.00
10079;BME280;5078;42.544;22.966;2023-02-13T06:50:37;95748.75;;;-1.96;100.00
10079;BME280;5078;42.544;22.966;2023-02-13T06:53:04;95747.75;;;-1.91;100.00
10079;BME280;5078;42.544;22.966;2023-02-13T06:55:31;95748.41;;;-1.61;100.00
10079;BME280;5078;42.544;22.966;2023-02-13T06:57:58;95748.91;;;-1.52;100.00
10079;BME280;5078;42.544;22.966;2023-02-13T07:00:26;95741.84;;;-1.48;100.00
10079;BME280;5078;42.544;22.966;2023-02-13T07:02:52;95726.97;;;-1.44;100.00
10079;BME280;5078;42.544;22.966;2023-02-13T07:05:19;95745.75;;;-1.36;100.00
10079;BME280;5078;42.544;22.966;2023-02-13T07:07:46;95757.31;;;-1.68;100.00
10079;BME280;5078;42.544;22.966;2023-02-13T07:10:13;95742.25;;;-1.59;100.00
10079;BME280;5078;42.544;22.966;2023-02-13T07:12:40;95745.34;;;-1.49;100.00
10079;BME280;5078;42.544;22.966;2023-02-13T07:15:07;95734.13;;;-1.27;100.00
10079;BME280;5078;42.544;22.966;2023-02-13T07:17:35;95740.75;;;-1.19;100.00
10079;BME280;5078;42.544;22.966;2023-02-13T07:20:02;95740.78;;;-0.97;100.00
10079;BME280;5078;42.544;22.966;2023-02-13T07:22:30;95736.94;;;-0.88;100.00
10079;BME280;5078;42.544;22.966;2023-02-13T07:24:57;95720.84;;;-1.20;100.00
10079;BME280;5078;42.544;22.966;2023-02-13T07:27:24;95735.88;;;-1.04;100.00
10079;BME280;5078;42.544;22.966;2023-02-13T07:29:54;95739.84;;;-0.96;100.00
10079;BME280;5078;42.544;22.966;2023-02-13T07:32:21;95754.91;;;-1.26;100.00
10079;BME280;5078;42.544;22.966;2023-02-13T07:34:49;95751.88;;;-1.15;100.00
10079;BME280;5078;42.544;22.966;2023-02-13T07:37:16;95746.88;;;-1.43;100.00
10079;BME280;5078;42.544;22.966;2023-02-13T07:39:43;95733.88;;;-1.43;100.00
10079;BME280;5078;42.544;22.966;2023-02-13T07:42:10;95740.41;;;-1.33;100.00
10079;BME280;5078;42.544;22.966;2023-02-13T07:44:36;95740.09;;;-1.02;100.00
10079;BME280;5078;42.544;22.966;2023-02-13T07:47:03;95745.00;;;-0.94;100.00
10079;BME280;5078;42.544;22.966;2023-02-13T07:49:30;95734.97;;;-0.81;100.00
10079;BME280;5078;42.544;22.966;2023-02-13T07:51:58;95738.53;;;-0.62;100.00
10079;BME280;5078;42.544;22.966;2023-02-13T07:54:24;95742.06;;;-0.43;100.00
10079;BME280;5078;42.544;22.966;2023-02-13T07:56:51;95746.00;;;-0.32;100.00
10079;BME280;5078;42.544;22.966;2023-02-13T07:59:18;95747.34;;;-0.44;100.00
10079;BME280;5078;42.544;22.966;2023-02-13T08:01:45;95747.47;;;-0.47;100.00
10079;BME280;5078;42.544;22.966;2023-02-13T08:04:11;95749.00;;;-0.21;100.00
10079;BME280;5078;42.544;22.966;2023-02-13T08:06:38;95734.47;;;-0.47;100.00
10079;BME280;5078;42.544;22.966;2023-02-13T08:09:07;95752.34;;;-0.60;100.00
10079;BME280;5078;42.544;22.966;2023-02-13T08:11:57;95741.56;;;-0.30;100.00
10079;BME280;5078;42.544;22.966;2023-02-13T08:14:25;95748.56;;;-0.53;100.00
10079;BME280;5078;42.544;22.966;2023-02-13T08:16:52;95744.13;;;-0.51;100.00
10079;BME280;5078;42.544;22.966;2023-02-13T08:19:20;95722.56;;;-0.32;100.00
10079;BME280;5078;42.544;22.966;2023-02-13T08:21:46;95742.22;;;-0.25;100.00
10079;BME280;5078;42.544;22.966;2023-02-13T08:24:14;95741.19;;;-0.21;100.00
10079;BME280;5078;42.544;22.966;2023-02-13T08:26:41;95732.78;;;-0.07;100.00
10079;BME280;5078;42.544;22.966;2023-02-13T08:29:08;95725.97;;;0.09;100.00
10079;BME280;5078;42.544;22.966;2023-02-13T08:31:35;95730.16;;;0.13;100.00
10079;BME280;5078;42.544;22.966;2023-02-13T08:34:02;95725.59;;;0.58;100.00
10079;BME280;5078;42.544;22.966;2023-02-13T08:36:30;95723.50;;;0.85;100.00
10079;BME280;5078;42.544;22.966;2023-02-13T08:38:58;95727.88;;;1.21;100.00
10079;BME280;5078;42.544;22.966;2023-02-13T08:41:26;95728.78;;;1.39;100.00
10079;BME280;5078;42.544;22.966;2023-02-13T08:43:53;95715.03;;;1.35;100.00
10079;BME280;5078;42.544;22.966;2023-02-13T08:46:20;95721.63;;;1.25;100.00
10079;BME280;5078;42.544;22.966;2023-02-13T08:48:47;95722.97;;;1.32;100.00
10079;BME280;5078;42.544;22.966;2023-02-13T08:51:14;95723.53;;;1.92;100.00
10079;BME280;5078;42.544;22.966;2023-02-13T08:53:40;95722.28;;;1.82;100.00
10079;BME280;5078;42.544;22.966;2023-02-13T08:56:08;95712.56;;;2.02;100.00
10079;BME280;5078;42.544;22.966;2023-02-13T08:58:37;95696.22;;;2.80;100.00
10079;BME280;5078;42.544;22.966;2023-02-13T09:01:07;95703.97;;;2.82;100.00
10079;BME280;5078;42.544;22.966;2023-02-13T09:03:34;95716.00;;;2.70;100.00
10079;BME280;5078;42.544;22.966;2023-02-13T09:06:01;95702.38;;;3.43;100.00
10079;BME280;5078;42.544;22.966;2023-02-13T09:08:28;95714.41;;;4.22;100.00
10079;BME280;5078;42.544;22.966;2023-02-13T09:10:56;95710.78;;;4.53;100.00
10079;BME280;5078;42.544;22.966;2023-02-13T09:13:25;95703.97;;;5.06;100.00
10079;BME280;5078;42.544;22.966;2023-02-13T09:15:57;95709.00;;;4.25;97.78
10079;BME280;5078;42.544;22.966;2023-02-13T09:18:24;95698.75;;;4.49;96.99
10079;BME280;5078;42.544;22.966;2023-02-13T09:20:56;95702.34;;;4.48;92.25
10079;BME280;5078;42.544;22.966;2023-02-13T09:23:23;95710.72;;;5.25;88.80
10079;BME280;5078;42.544;22.966;2023-02-13T09:25:50;95706.00;;;5.30;83.81
10079;BME280;5078;42.544;22.966;2023-02-13T09:28:17;95705.25;;;5.82;79.71
10079;BME280;5078;42.544;22.966;2023-02-13T09:30:43;95690.81;;;6.15;76.73
10079;BME280;5078;42.544;22.966;2023-02-13T09:33:11;95693.66;;;6.12;74.80
10079;BME280;5078;42.544;22.966;2023-02-13T09:35:38;95697.47;;;5.53;74.44
10079;BME280;5078;42.544;22.966;2023-02-13T09:38:06;95687.53;;;6.11;74.09
10079;BME280;5078;42.544;22.966;2023-02-13T09:40:38;95697.84;;;6.01;72.50
10079;BME280;5078;42.544;22.966;2023-02-13T09:43:12;95686.81;;;6.35;73.27
10079;BME280;5078;42.544;22.966;2023-02-13T09:45:40;95687.44;;;6.25;72.94
10079;BME280;5078;42.544;22.966;2023-02-13T09:48:17;95673.13;;;6.30;71.93
10079;BME280;5078;42.544;22.966;2023-02-13T09:50:44;95675.09;;;5.73;72.75
10079;BME280;5078;42.544;22.966;2023-02-13T09:53:19;95672.16;;;6.31;71.98
10079;BME280;5078;42.544;22.966;2023-02-13T09:55:53;95669.56;;;5.91;71.44
10079;BME280;5078;42.544;22.966;2023-02-13T09:58:35;95658.56;;;6.11;71.14
10079;BME280;5078;42.544;22.966;2023-02-13T10:01:15;95632.44;;;6.59;67.05
10079;BME280;5078;42.544;22.966;2023-02-13T10:03:49;95654.78;;;6.66;65.32
10079;BME280;5078;42.544;22.966;2023-02-13T10:06:22;95647.03;;;6.89;64.42
10079;BME280;5078;42.544;22.966;2023-02-13T10:09:03;95644.22;;;7.03;65.13
10079;BME280;5078;42.544;22.966;2023-02-13T10:11:54;95644.53;;;7.60;60.54
10079;BME280;5078;42.544;22.966;2023-02-13T10:14:31;95636.56;;;8.19;58.42
10079;BME280;5078;42.544;22.966;2023-02-13T10:17:04;95629.88;;;7.91;57.29
10079;BME280;5078;42.544;22.966;2023-02-13T10:19:38;95631.28;;;8.19;54.74
10079;BME280;5078;42.544;22.966;2023-02-13T10:22:11;95632.00;;;8.32;53.92
10079;BME280;5078;42.544;22.966;2023-02-13T10:24:44;95609.66;;;8.25;54.39
10079;BME280;5078;42.544;22.966;2023-02-13T10:27:19;95619.81;;;8.54;54.13
10079;BME280;5078;42.544;22.966;2023-02-13T10:29:51;95616.88;;;8.34;53.88
10079;BME280;5078;42.544;22.966;2023-02-13T10:32:41;95603.78;;;8.33;52.73
10079;BME280;5078;42.544;22.966;2023-02-13T10:35:21;95618.59;;;8.58;52.14
10079;BME280;5078;42.544;22.966;2023-02-13T10:37:51;95608.53;;;8.52;52.72
10079;BME280;5078;42.544;22.966;2023-02-13T10:40:22;95593.22;;;8.89;50.87
10079;BME280;5078;42.544;22.966;2023-02-13T10:42:57;95591.19;;;8.70;50.71
10079;BME280;5078;42.544;22.966;2023-02-13T10:45:39;95592.63;;;8.29;51.59
10079;BME280;5078;42.544;22.966;2023-02-13T10:48:21;95591.19;;;8.36;51.34
10079;BME280;5078;42.544;22.966;2023-02-13T10:51:01;95583.34;;;8.24;52.30
10079;BME280;5078;42.544;22.966;2023-02-13T10:53:42;95572.78;;;8.12;52.23
10079;BME280;5078;42.544;22.966;2023-02-13T10:56:22;95566.63;;;7.89;53.79
10079;BME280;5078;42.544;22.966;2023-02-13T11:01:45;95566.69;;;7.65;53.29
10079;BME280;5078;42.544;22.966;2023-02-13T11:04:16;95558.25;;;8.07;53.20
10079;BME280;5078;42.544;22.966;2023-02-13T11:06:50;95560.19;;;8.61;51.37
10079;BME280;5078;42.544;22.966;2023-02-13T11:09:20;95552.16;;;9.06;50.36
10079;BME280;5078;42.544;22.966;2023-02-13T11:11:48;95547.56;;;9.19;49.00
10079;BME280;5078;42.544;22.966;2023-02-13T11:14:17;95553.59;;;9.21;49.43
10079;BME280;5078;42.544;22.966;2023-02-13T11:16:53;95528.88;;;9.53;48.96
10079;BME280;5078;42.544;22.966;2023-02-13T11:19:24;95528.91;;;9.74;47.14
10079;BME280;5078;42.544;22.966;2023-02-13T11:21:58;95520.31;;;9.82;46.74
10079;BME280;5078;42.544;22.966;2023-02-13T11:24:28;95525.41;;;9.53;47.81
10079;BME280;5078;42.544;22.966;2023-02-13T11:27:00;95520.94;;;9.95;46.24
10079;BME280;5078;42.544;22.966;2023-02-13T11:29:32;95521.38;;;9.16;46.40
10079;BME280;5078;42.544;22.966;2023-02-13T11:32:16;95517.34;;;8.90;47.37
10079;BME280;5078;42.544;22.966;2023-02-13T11:34:44;95517.19;;;9.56;46.53
10079;BME280;5078;42.544;22.966;2023-02-13T11:37:18;95509.13;;;9.57;46.25
10079;BME280;5078;42.544;22.966;2023-02-13T11:39:46;95515.06;;;9.70;43.90
10079;BME280;5078;42.544;22.966;2023-02-13T11:42:14;95503.78;;;9.15;44.32
10079;BME280;5078;42.544;22.966;2023-02-13T11:44:48;95487.88;;;9.68;43.65
10079;BME280;5078;42.544;22.966;2023-02-13T11:47:15;95491.31;;;10.11;42.77
10079;BME280;5078;42.544;22.966;2023-02-13T11:49:45;95487.41;;;9.84;43.98
10079;BME280;5078;42.544;22.966;2023-02-13T11:52:22;95484.66;;;9.44;44.19
10079;BME280;5078;42.544;22.966;2023-02-13T11:54:56;95476.81;;;9.63;44.76
10079;BME280;5078;42.544;22.966;2023-02-13T11:57:28;95460.50;;;9.37;44.62
10079;BME280;5078;42.544;22.966;2023-02-13T11:59:56;95473.31;;;9.00;45.14
10079;BME280;5078;42.544;22.966;2023-02-13T12:02:25;95475.88;;;8.02;46.81
10079;BME280;5078;42.544;22.966;2023-02-13T12:04:53;95445.56;;;8.51;46.63
10079;BME280;5078;42.544;22.966;2023-02-13T12:07:24;95454.47;;;8.50;45.49
10079;BME280;5078;42.544;22.966;2023-02-13T12:09:59;95444.09;;;8.69;45.34
10079;BME280;5078;42.544;22.966;2023-02-13T12:12:34;95450.84;;;8.62;45.69
10079;BME280;5078;42.544;22.966;2023-02-13T12:15:14;95445.91;;;8.57;45.73
10079;BME280;5078;42.544;22.966;2023-02-13T12:17:43;95438.16;;;8.11;47.25
10079;BME280;5078;42.544;22.966;2023-02-13T12:20:12;95443.06;;;8.27;47.33
10079;BME280;5078;42.544;22.966;2023-02-13T12:22:52;95444.88;;;8.04;47.42
10079;BME280;5078;42.544;22.966;2023-02-13T12:25:43;95434.09;;;8.07;47.80
10079;BME280;5078;42.544;22.966;2023-02-13T12:28:14;95426.91;;;7.86;48.67
10079;BME280;5078;42.544;22.966;2023-02-13T12:30:55;95435.50;;;7.32;49.88
10079;BME280;5078;42.544;22.966;2023-02-13T12:33:43;95428.06;;;7.37;50.49
10079;BME280;5078;42.544;22.966;2023-02-13T12:36:15;95426.88;;;7.52;49.79
10079;BME280;5078;42.544;22.966;2023-02-13T12:38:56;95408.63;;;7.61;50.05
10079;BME280;5078;42.544;22.966;2023-02-13T12:41:31;95420.06;;;7.72;49.51
10079;BME280;5078;42.544;22.966;2023-02-13T12:44:21;95417.41;;;7.61;50.56
10079;BME280;5078;42.544;22.966;2023-02-13T12:46:57;95412.38;;;7.69;49.84
10079;BME280;5078;42.544;22.966;2023-02-13T12:49:50;95395.91;;;7.99;48.99
10079;BME280;5078;42.544;22.966;2023-02-13T12:52:33;95403.38;;;7.94;49.38
10079;BME280;5078;42.544;22.966;2023-02-13T12:55:18;95402.88;;;8.00;48.48
10079;BME280;5078;42.544;22.966;2023-02-13T12:57:58;95398.81;;;7.96;48.92
10079;BME280;5078;42.544;22.966;2023-02-13T13:00:39;95402.88;;;7.44;48.72
10079;BME280;5078;42.544;22.966;2023-02-13T13:03:28;95395.44;;;7.49;49.38
10079;BME280;5078;42.544;22.966;2023-02-13T13:06:12;95395.66;;;7.24;48.78
10079;BME280;5078;42.544;22.966;2023-02-13T13:09:10;95389.38;;;7.13;48.94
10079;BME280;5078;42.544;22.966;2023-02-13T13:12:05;95390.53;;;6.87;49.01
10079;BME280;5078;42.544;22.966;2023-02-13T13:14:42;95381.84;;;6.62;49.16
10079;BME280;5078;42.544;22.966;2023-02-13T13:17:22;95399.94;;;6.67;48.46
10079;BME280;5078;42.544;22.966;2023-02-13T13:19:55;95387.69;;;6.66;48.55
10079;BME280;5078;42.544;22.966;2023-02-13T13:22:31;95391.41;;;6.63;49.28
10079;BME280;5078;42.544;22.966;2023-02-13T13:25:04;95384.19;;;6.54;49.79
10079;BME280;5078;42.544;22.966;2023-02-13T13:27:41;95369.06;;;6.45;49.35